Flugplatz Reinsdorf

Für EDOD sind keine METAR/TAF Berichte vorhanden.
Es werden die Flugwettermeldungen vom Flugplatz Holzdorf Airport in 14 km Entfernung angezeigt.

Bericht für ETSH

vom 26.09. um 23:20 UTC

Wind 5 kt aus 140°

Sichtweite 10 km oder mehr

gering bewölkt in 5000 ft

Temperatur 6.0°C

Taupunkt 5.0°C

Luftfeuchtigkeit 93%

Luftdruck 998 hPa

ETSH 262320Z 14005KT 9999 FEW050 06/05 Q0998 BLU+
Keine Prognose (TAF) verfügbar.
Impressum